Wausau, Florida
Current Conditions -  °F | °C
As of 5:53 PM on Saturday 25 Oct 2014 (Local Time) from KECP Reporting Station
Clear Clear  
Wind Chill: 71°   Ceiling: Unl
Heat Index: 71°   Visibility: 10mi
Dew Point: 51°   Wind: 5mph
Humidity: 49%   Direction: 310°NW
Pressure: 30.01"   Gusts: NA
Location:  30.63°N, 85.59°W
Report Text: KECP 252253Z 31004KT 10SM CLR 22/11 A3001 RMK AO2 SLP172 T02170106 $
Loading
Personal Weather Stations






























Interactive Weather Map New forecast layout! Learn more

10-Day Weather Forecast

Advertisements
Track Severe Weather on mobile